sensor_id;sensor_type;location;lat;lon;timestamp;noise_LAeq;noise_LA_min;noise_LA_max;noise_LA01;noise_LA95
37223;Laerm;28026;48.562;14.440;2024-01-10T00:00:24;38.99;35.04;45.77;;
37223;Laerm;28026;48.562;14.440;2024-01-10T00:02:55;38.68;33.44;54.12;;
37223;Laerm;28026;48.562;14.440;2024-01-10T00:05:26;38.74;34.31;52.01;;
37223;Laerm;28026;48.562;14.440;2024-01-10T00:07:56;38.37;34.31;46.52;;
37223;Laerm;28026;48.562;14.440;2024-01-10T00:10:27;39.96;35.04;57.37;;
37223;Laerm;28026;48.562;14.440;2024-01-10T00:12:59;39.81;35.04;53.40;;
37223;Laerm;28026;48.562;14.440;2024-01-10T00:15:29;46.39;35.36;70.05;;
37223;Laerm;28026;48.562;14.440;2024-01-10T00:18:00;39.85;34.69;51.33;;
37223;Laerm;28026;48.562;14.440;2024-01-10T00:20:31;38.42;33.44;43.77;;
37223;Laerm;28026;48.562;14.440;2024-01-10T00:23:02;38.50;34.31;45.51;;
37223;Laerm;28026;48.562;14.440;2024-01-10T00:25:33;38.78;33.90;42.03;;
37223;Laerm;28026;48.562;14.440;2024-01-10T00:28:05;39.20;34.31;54.75;;
37223;Laerm;28026;48.562;14.440;2024-01-10T00:30:35;38.47;34.31;41.82;;
37223;Laerm;28026;48.562;14.440;2024-01-10T00:33:06;38.22;32.93;45.33;;
37223;Laerm;28026;48.562;14.440;2024-01-10T00:35:37;39.35;33.44;61.26;;
37223;Laerm;28026;48.562;14.440;2024-01-10T00:38:09;40.81;32.93;58.75;;
37223;Laerm;28026;48.562;14.440;2024-01-10T00:40:40;39.56;33.90;51.22;;
37223;Laerm;28026;48.562;14.440;2024-01-10T00:43:11;38.67;33.44;53.85;;
37223;Laerm;28026;48.562;14.440;2024-01-10T00:45:42;40.96;34.31;61.43;;
37223;Laerm;28026;48.562;14.440;2024-01-10T00:48:13;43.16;35.36;67.83;;
37223;Laerm;28026;48.562;14.440;2024-01-10T00:50:44;41.92;35.36;65.46;;
37223;Laerm;28026;48.562;14.440;2024-01-10T00:53:16;39.59;34.69;55.46;;
37223;Laerm;28026;48.562;14.440;2024-01-10T00:55:48;38.95;35.04;43.24;;
37223;Laerm;28026;48.562;14.440;2024-01-10T00:58:19;40.06;34.31;51.89;;
37223;Laerm;28026;48.562;14.440;2024-01-10T01:00:50;40.93;32.93;59.03;;
37223;Laerm;28026;48.562;14.440;2024-01-10T01:03:20;41.84;35.04;66.51;;
37223;Laerm;28026;48.562;14.440;2024-01-10T01:05:51;39.13;34.31;48.43;;
37223;Laerm;28026;48.562;14.440;2024-01-10T01:08:22;38.81;33.90;54.90;;
37223;Laerm;28026;48.562;14.440;2024-01-10T01:10:53;39.62;34.31;43.72;;
37223;Laerm;28026;48.562;14.440;2024-01-10T01:13:24;39.66;35.04;43.58;;
37223;Laerm;28026;48.562;14.440;2024-01-10T01:15:55;39.02;33.90;52.64;;
37223;Laerm;28026;48.562;14.440;2024-01-10T01:18:25;38.94;35.36;42.03;;
37223;Laerm;28026;48.562;14.440;2024-01-10T01:20:56;39.23;33.90;49.07;;
37223;Laerm;28026;48.562;14.440;2024-01-10T01:23:27;39.78;35.36;66.29;;
37223;Laerm;28026;48.562;14.440;2024-01-10T01:25:59;38.43;34.31;54.31;;
37223;Laerm;28026;48.562;14.440;2024-01-10T01:28:30;43.17;34.31;62.38;;
37223;Laerm;28026;48.562;14.440;2024-01-10T01:31:01;38.55;35.04;42.82;;
37223;Laerm;28026;48.562;14.440;2024-01-10T01:33:32;43.53;35.36;67.96;;
37223;Laerm;28026;48.562;14.440;2024-01-10T01:36:03;39.70;34.69;51.68;;
37223;Laerm;28026;48.562;14.440;2024-01-10T01:38:35;41.16;34.31;67.51;;
37223;Laerm;28026;48.562;14.440;2024-01-10T01:41:06;38.10;32.93;41.82;;
37223;Laerm;28026;48.562;14.440;2024-01-10T01:43:37;41.75;34.31;58.57;;
37223;Laerm;28026;48.562;14.440;2024-01-10T01:46:08;39.06;34.69;44.15;;
37223;Laerm;28026;48.562;14.440;2024-01-10T01:48:40;39.24;34.31;42.59;;
37223;Laerm;28026;48.562;14.440;2024-01-10T01:51:14;38.81;33.44;46.02;;
37223;Laerm;28026;48.562;14.440;2024-01-10T01:53:48;39.83;35.66;46.73;;
37223;Laerm;28026;48.562;14.440;2024-01-10T01:56:20;38.93;35.04;44.27;;
37223;Laerm;28026;48.562;14.440;2024-01-10T01:58:54;40.15;35.36;43.99;;
37223;Laerm;28026;48.562;14.440;2024-01-10T02:01:25;40.63;36.20;44.03;;
37223;Laerm;28026;48.562;14.440;2024-01-10T02:03:56;39.94;35.66;55.37;;
37223;Laerm;28026;48.562;14.440;2024-01-10T02:06:27;38.87;34.69;55.82;;
37223;Laerm;28026;48.562;14.440;2024-01-10T02:08:59;41.03;34.31;67.37;;
37223;Laerm;28026;48.562;14.440;2024-01-10T02:11:31;38.53;33.44;45.97;;
37223;Laerm;28026;48.562;14.440;2024-01-10T02:14:03;38.92;34.69;42.47;;
37223;Laerm;28026;48.562;14.440;2024-01-10T02:16:33;38.63;34.69;42.98;;
37223;Laerm;28026;48.562;14.440;2024-01-10T02:19:22;40.06;35.94;44.90;;
37223;Laerm;28026;48.562;14.440;2024-01-10T02:21:54;39.66;35.36;43.09;;
37223;Laerm;28026;48.562;14.440;2024-01-10T02:24:26;39.95;35.36;54.66;;
37223;Laerm;28026;48.562;14.440;2024-01-10T02:26:57;40.19;34.69;58.45;;
37223;Laerm;28026;48.562;14.440;2024-01-10T02:29:30;40.23;34.69;43.94;;
37223;Laerm;28026;48.562;14.440;2024-01-10T02:32:02;38.15;33.44;41.46;;
37223;Laerm;28026;48.562;14.440;2024-01-10T02:34:33;38.91;35.04;42.82;;
37223;Laerm;28026;48.562;14.440;2024-01-10T02:37:04;40.23;35.94;44.54;;
37223;Laerm;28026;48.562;14.440;2024-01-10T02:39:34;39.42;34.69;46.43;;
37223;Laerm;28026;48.562;14.440;2024-01-10T02:42:05;39.41;33.90;64.87;;
37223;Laerm;28026;48.562;14.440;2024-01-10T02:44:36;39.25;35.04;57.09;;
37223;Laerm;28026;48.562;14.440;2024-01-10T02:47:08;40.17;34.69;52.97;;
37223;Laerm;28026;48.562;14.440;2024-01-10T02:49:39;40.09;34.69;58.71;;
37223;Laerm;28026;48.562;14.440;2024-01-10T02:52:10;39.89;35.04;56.56;;
37223;Laerm;28026;48.562;14.440;2024-01-10T02:54:41;40.64;35.94;61.14;;
37223;Laerm;28026;48.562;14.440;2024-01-10T02:57:12;40.93;33.90;46.59;;
37223;Laerm;28026;48.562;14.440;2024-01-10T02:59:43;42.96;36.91;51.11;;
37223;Laerm;28026;48.562;14.440;2024-01-10T03:02:15;42.55;35.36;60.37;;
37223;Laerm;28026;48.562;14.440;2024-01-10T03:04:45;40.44;35.66;56.52;;
37223;Laerm;28026;48.562;14.440;2024-01-10T03:07:16;41.62;35.04;67.76;;
37223;Laerm;28026;48.562;14.440;2024-01-10T03:09:47;41.03;37.52;44.23;;
37223;Laerm;28026;48.562;14.440;2024-01-10T03:12:18;40.00;35.94;43.44;;
37223;Laerm;28026;48.562;14.440;2024-01-10T03:14:49;39.99;33.90;54.04;;
37223;Laerm;28026;48.562;14.440;2024-01-10T03:17:20;42.36;35.66;59.76;;
37223;Laerm;28026;48.562;14.440;2024-01-10T03:19:51;43.63;36.91;62.23;;
37223;Laerm;28026;48.562;14.440;2024-01-10T03:22:22;45.03;34.31;71.73;;
37223;Laerm;28026;48.562;14.440;2024-01-10T03:24:52;43.35;34.31;65.74;;
37223;Laerm;28026;48.562;14.440;2024-01-10T03:27:23;44.14;39.46;54.39;;
37223;Laerm;28026;48.562;14.440;2024-01-10T03:29:54;49.14;37.88;81.88;;
37223;Laerm;28026;48.562;14.440;2024-01-10T03:32:25;43.29;36.20;61.74;;
37223;Laerm;28026;48.562;14.440;2024-01-10T03:34:56;43.43;35.36;66.46;;
37223;Laerm;28026;48.562;14.440;2024-01-10T03:37:27;42.32;34.69;67.45;;
37223;Laerm;28026;48.562;14.440;2024-01-10T03:39:57;41.55;36.20;51.98;;
37223;Laerm;28026;48.562;14.440;2024-01-10T03:42:29;43.02;36.69;59.67;;
37223;Laerm;28026;48.562;14.440;2024-01-10T03:45:01;42.89;35.94;61.56;;
37223;Laerm;28026;48.562;14.440;2024-01-10T03:47:32;42.24;34.69;64.60;;
37223;Laerm;28026;48.562;14.440;2024-01-10T03:50:03;42.12;34.31;65.79;;
37223;Laerm;28026;48.562;14.440;2024-01-10T03:52:34;43.47;35.04;70.53;;
37223;Laerm;28026;48.562;14.440;2024-01-10T03:55:05;39.61;35.04;50.13;;
37223;Laerm;28026;48.562;14.440;2024-01-10T03:57:36;39.80;35.94;53.44;;
37223;Laerm;28026;48.562;14.440;2024-01-10T04:00:08;41.02;34.69;55.38;;
37223;Laerm;28026;48.562;14.440;2024-01-10T04:02:40;40.41;36.34;55.94;;
37223;Laerm;28026;48.562;14.440;2024-01-10T04:05:11;39.90;35.36;56.54;;
37223;Laerm;28026;48.562;14.440;2024-01-10T04:07:43;41.19;36.20;61.10;;
37223;Laerm;28026;48.562;14.440;2024-01-10T04:10:14;40.37;35.04;59.21;;
37223;Laerm;28026;48.562;14.440;2024-01-10T04:12:45;42.96;38.52;51.94;;
37223;Laerm;28026;48.562;14.440;2024-01-10T04:15:16;43.28;37.87;60.66;;
37223;Laerm;28026;48.562;14.440;2024-01-10T04:17:48;44.78;35.66;70.55;;
37223;Laerm;28026;48.562;14.440;2024-01-10T04:20:19;42.24;37.12;63.72;;
37223;Laerm;28026;48.562;14.440;2024-01-10T04:22:50;42.11;36.20;61.06;;
37223;Laerm;28026;48.562;14.440;2024-01-10T04:25:21;40.43;35.04;62.63;;
37223;Laerm;28026;48.562;14.440;2024-01-10T04:27:52;40.44;33.44;60.77;;
37223;Laerm;28026;48.562;14.440;2024-01-10T04:30:23;44.70;37.52;68.08;;
37223;Laerm;28026;48.562;14.440;2024-01-10T04:32:54;43.81;36.20;68.80;;
37223;Laerm;28026;48.562;14.440;2024-01-10T04:35:25;42.06;35.66;57.53;;
37223;Laerm;28026;48.562;14.440;2024-01-10T04:37:56;42.65;37.12;56.39;;
37223;Laerm;28026;48.562;14.440;2024-01-10T04:40:27;41.36;36.34;59.72;;
37223;Laerm;28026;48.562;14.440;2024-01-10T04:42:57;42.41;38.37;48.67;;
37223;Laerm;28026;48.562;14.440;2024-01-10T04:45:28;43.69;36.69;68.05;;
37223;Laerm;28026;48.562;14.440;2024-01-10T04:47:59;41.66;36.69;48.91;;
37223;Laerm;28026;48.562;14.440;2024-01-10T04:50:30;41.52;35.04;51.46;;
37223;Laerm;28026;48.562;14.440;2024-01-10T04:53:01;42.85;37.52;60.10;;
37223;Laerm;28026;48.562;14.440;2024-01-10T04:55:32;41.37;36.69;56.78;;
37223;Laerm;28026;48.562;14.440;2024-01-10T04:58:03;42.33;35.94;64.45;;
37223;Laerm;28026;48.562;14.440;2024-01-10T05:00:34;40.88;35.66;57.79;;
37223;Laerm;28026;48.562;14.440;2024-01-10T05:03:04;41.67;37.70;61.91;;
37223;Laerm;28026;48.562;14.440;2024-01-10T05:05:35;40.71;36.91;45.57;;
37223;Laerm;28026;48.562;14.440;2024-01-10T05:08:06;41.98;35.66;57.53;;
37223;Laerm;28026;48.562;14.440;2024-01-10T05:10:37;44.36;39.46;55.70;;
37223;Laerm;28026;48.562;14.440;2024-01-10T05:13:08;42.57;37.88;59.09;;
37223;Laerm;28026;48.562;14.440;2024-01-10T05:15:39;42.17;38.21;50.58;;
37223;Laerm;28026;48.562;14.440;2024-01-10T05:18:10;42.74;38.52;62.17;;
37223;Laerm;28026;48.562;14.440;2024-01-10T05:20:41;42.52;37.70;58.59;;
37223;Laerm;28026;48.562;14.440;2024-01-10T05:23:12;42.02;38.21;44.83;;
37223;Laerm;28026;48.562;14.440;2024-01-10T05:25:43;46.38;36.91;74.63;;
37223;Laerm;28026;48.562;14.440;2024-01-10T05:28:14;43.85;36.45;67.31;;
37223;Laerm;28026;48.562;14.440;2024-01-10T05:30:44;41.86;37.70;46.65;;
37223;Laerm;28026;48.562;14.440;2024-01-10T05:33:15;49.93;37.88;79.03;;
37223;Laerm;28026;48.562;14.440;2024-01-10T05:35:46;43.85;36.69;58.32;;
37223;Laerm;28026;48.562;14.440;2024-01-10T05:38:17;43.68;38.05;62.80;;
37223;Laerm;28026;48.562;14.440;2024-01-10T05:40:48;42.66;36.91;50.05;;
37223;Laerm;28026;48.562;14.440;2024-01-10T05:43:19;41.79;36.45;59.23;;
37223;Laerm;28026;48.562;14.440;2024-01-10T05:45:50;44.02;37.12;63.95;;
37223;Laerm;28026;48.562;14.440;2024-01-10T05:48:21;42.46;37.52;54.14;;
37223;Laerm;28026;48.562;14.440;2024-01-10T05:50:53;41.31;37.32;51.04;;
37223;Laerm;28026;48.562;14.440;2024-01-10T05:53:24;41.25;37.52;57.02;;
37223;Laerm;28026;48.562;14.440;2024-01-10T05:55:55;49.24;36.69;76.64;;
37223;Laerm;28026;48.562;14.440;2024-01-10T05:58:26;42.50;37.17;56.56;;
37223;Laerm;28026;48.562;14.440;2024-01-10T06:00:57;42.14;37.52;62.65;;
37223;Laerm;28026;48.562;14.440;2024-01-10T06:03:28;41.22;37.32;47.88;;
37223;Laerm;28026;48.562;14.440;2024-01-10T06:05:59;42.26;35.36;55.30;;
37223;Laerm;28026;48.562;14.440;2024-01-10T06:08:29;41.83;35.94;61.41;;
37223;Laerm;28026;48.562;14.440;2024-01-10T06:11:04;41.84;36.56;58.23;;
37223;Laerm;28026;48.562;14.440;2024-01-10T06:13:37;42.76;37.12;68.45;;
37223;Laerm;28026;48.562;14.440;2024-01-10T06:16:08;42.83;37.52;67.14;;
37223;Laerm;28026;48.562;14.440;2024-01-10T06:18:39;40.60;36.20;48.21;;
37223;Laerm;28026;48.562;14.440;2024-01-10T06:21:10;43.12;37.70;68.72;;
37223;Laerm;28026;48.562;14.440;2024-01-10T06:23:41;42.70;37.88;57.75;;
37223;Laerm;28026;48.562;14.440;2024-01-10T06:26:12;41.58;37.88;51.82;;
37223;Laerm;28026;48.562;14.440;2024-01-10T06:28:43;42.46;38.05;58.27;;
37223;Laerm;28026;48.562;14.440;2024-01-10T06:31:14;42.12;37.12;62.63;;
37223;Laerm;28026;48.562;14.440;2024-01-10T06:33:44;42.71;38.47;54.39;;
37223;Laerm;28026;48.562;14.440;2024-01-10T06:36:15;43.19;39.70;49.73;;
37223;Laerm;28026;48.562;14.440;2024-01-10T06:38:46;43.42;38.67;70.25;;
37223;Laerm;28026;48.562;14.440;2024-01-10T06:41:21;43.51;36.20;67.33;;
37223;Laerm;28026;48.562;14.440;2024-01-10T06:43:54;40.87;36.69;48.23;;
37223;Laerm;28026;48.562;14.440;2024-01-10T06:46:25;42.17;37.70;53.30;;
37223;Laerm;28026;48.562;14.440;2024-01-10T06:48:56;42.52;37.70;58.95;;
37223;Laerm;28026;48.562;14.440;2024-01-10T06:51:27;42.56;36.69;60.83;;
37223;Laerm;28026;48.562;14.440;2024-01-10T06:53:58;42.27;37.12;53.43;;
37223;Laerm;28026;48.562;14.440;2024-01-10T06:56:34;41.46;37.12;49.56;;
37223;Laerm;28026;48.562;14.440;2024-01-10T06:59:05;42.33;34.31;66.11;;
37223;Laerm;28026;48.562;14.440;2024-01-10T07:01:36;41.81;38.05;54.40;;
37223;Laerm;28026;48.562;14.440;2024-01-10T07:04:08;41.37;36.45;62.78;;
37223;Laerm;28026;48.562;14.440;2024-01-10T07:06:39;40.67;35.66;50.02;;
37223;Laerm;28026;48.562;14.440;2024-01-10T07:09:10;41.04;35.94;53.56;;
37223;Laerm;28026;48.562;14.440;2024-01-10T07:11:41;41.50;37.12;49.90;;
37223;Laerm;28026;48.562;14.440;2024-01-10T07:14:12;42.29;36.20;61.75;;
37223;Laerm;28026;48.562;14.440;2024-01-10T07:16:44;41.44;37.32;58.87;;
37223;Laerm;28026;48.562;14.440;2024-01-10T07:19:16;42.02;36.45;59.07;;
37223;Laerm;28026;48.562;14.440;2024-01-10T07:21:47;40.43;36.45;48.02;;
37223;Laerm;28026;48.562;14.440;2024-01-10T07:24:18;42.80;36.20;69.86;;
37223;Laerm;28026;48.562;14.440;2024-01-10T07:26:48;40.77;36.91;52.83;;
37223;Laerm;28026;48.562;14.440;2024-01-10T07:29:20;42.84;37.52;53.89;;
37223;Laerm;28026;48.562;14.440;2024-01-10T07:31:51;41.34;37.32;60.97;;
37223;Laerm;28026;48.562;14.440;2024-01-10T07:34:23;41.95;38.21;62.47;;
37223;Laerm;28026;48.562;14.440;2024-01-10T07:36:54;43.12;37.12;71.51;;
37223;Laerm;28026;48.562;14.440;2024-01-10T07:39:24;48.40;37.70;61.45;;
37223;Laerm;28026;48.562;14.440;2024-01-10T07:41:55;46.09;37.52;60.00;;
37223;Laerm;28026;48.562;14.440;2024-01-10T07:44:26;41.05;37.52;46.66;;
37223;Laerm;28026;48.562;14.440;2024-01-10T07:46:57;51.30;38.21;73.98;;
37223;Laerm;28026;48.562;14.440;2024-01-10T07:49:28;41.77;38.67;47.44;;
37223;Laerm;28026;48.562;14.440;2024-01-10T07:52:00;42.54;38.52;57.81;;
37223;Laerm;28026;48.562;14.440;2024-01-10T07:54:31;47.79;42.29;61.36;;
37223;Laerm;28026;48.562;14.440;2024-01-10T07:57:03;43.78;38.21;56.60;;
37223;Laerm;28026;48.562;14.440;2024-01-10T07:59:33;40.53;36.91;49.82;;
37223;Laerm;28026;48.562;14.440;2024-01-10T08:02:05;41.07;36.45;56.41;;
37223;Laerm;28026;48.562;14.440;2024-01-10T08:04:36;41.39;37.52;60.65;;
37223;Laerm;28026;48.562;14.440;2024-01-10T08:07:07;42.14;38.37;47.30;;
37223;Laerm;28026;48.562;14.440;2024-01-10T08:09:38;41.88;37.70;51.40;;
37223;Laerm;28026;48.562;14.440;2024-01-10T08:12:09;41.03;37.70;53.16;;
37223;Laerm;28026;48.562;14.440;2024-01-10T08:14:43;41.01;37.32;54.78;;
37223;Laerm;28026;48.562;14.440;2024-01-10T08:17:16;43.26;38.52;52.91;;
37223;Laerm;28026;48.562;14.440;2024-01-10T08:19:47;41.59;36.91;52.90;;
37223;Laerm;28026;48.562;14.440;2024-01-10T08:22:18;43.06;37.88;54.05;;
37223;Laerm;28026;48.562;14.440;2024-01-10T08:24:53;41.70;37.70;50.15;;
37223;Laerm;28026;48.562;14.440;2024-01-10T08:27:25;42.39;37.88;50.20;;
37223;Laerm;28026;48.562;14.440;2024-01-10T08:29:56;41.76;37.88;49.04;;
37223;Laerm;28026;48.562;14.440;2024-01-10T08:32:27;42.67;38.67;61.80;;
37223;Laerm;28026;48.562;14.440;2024-01-10T08:34:58;41.94;37.52;62.44;;
37223;Laerm;28026;48.562;14.440;2024-01-10T08:37:29;40.92;37.32;59.98;;
37223;Laerm;28026;48.562;14.440;2024-01-10T08:40:00;41.40;37.70;54.80;;
37223;Laerm;28026;48.562;14.440;2024-01-10T08:42:41;41.01;37.52;44.76;;
37223;Laerm;28026;48.562;14.440;2024-01-10T08:45:12;41.17;37.12;55.36;;
37223;Laerm;28026;48.562;14.440;2024-01-10T08:47:43;43.18;38.60;56.33;;
37223;Laerm;28026;48.562;14.440;2024-01-10T08:50:14;41.44;37.70;50.20;;
37223;Laerm;28026;48.562;14.440;2024-01-10T08:52:45;41.67;37.12;60.35;;
37223;Laerm;28026;48.562;14.440;2024-01-10T08:55:16;41.65;37.32;55.69;;
37223;Laerm;28026;48.562;14.440;2024-01-10T08:57:47;42.50;37.87;66.20;;
37223;Laerm;28026;48.562;14.440;2024-01-10T09:00:18;41.15;37.32;45.66;;
37223;Laerm;28026;48.562;14.440;2024-01-10T09:02:49;41.68;37.12;48.55;;
37223;Laerm;28026;48.562;14.440;2024-01-10T09:05:20;41.81;37.70;47.77;;
37223;Laerm;28026;48.562;14.440;2024-01-10T09:07:52;42.95;38.37;47.57;;
37223;Laerm;28026;48.562;14.440;2024-01-10T09:10:24;42.48;38.05;45.51;;
37223;Laerm;28026;48.562;14.440;2024-01-10T09:12:59;41.75;37.32;45.33;;
37223;Laerm;28026;48.562;14.440;2024-01-10T09:15:30;42.38;37.88;52.41;;
37223;Laerm;28026;48.562;14.440;2024-01-10T09:18:01;41.83;36.45;47.95;;
37223;Laerm;28026;48.562;14.440;2024-01-10T09:20:31;41.41;37.70;44.62;;
37223;Laerm;28026;48.562;14.440;2024-01-10T09:23:03;41.08;36.69;46.73;;
37223;Laerm;28026;48.562;14.440;2024-01-10T09:25:34;41.34;36.69;45.20;;
37223;Laerm;28026;48.562;14.440;2024-01-10T09:28:05;43.13;36.69;53.25;;
37223;Laerm;28026;48.562;14.440;2024-01-10T09:30:36;41.82;36.69;46.50;;
37223;Laerm;28026;48.562;14.440;2024-01-10T09:33:06;41.66;36.91;46.76;;
37223;Laerm;28026;48.562;14.440;2024-01-10T09:35:37;42.99;38.95;49.90;;
37223;Laerm;28026;48.562;14.440;2024-01-10T09:38:09;42.67;38.81;46.62;;
37223;Laerm;28026;48.562;14.440;2024-01-10T09:40:40;42.99;38.67;50.94;;
37223;Laerm;28026;48.562;14.440;2024-01-10T09:43:11;45.57;38.37;59.83;;
37223;Laerm;28026;48.562;14.440;2024-01-10T09:45:48;41.89;37.52;46.38;;
37223;Laerm;28026;48.562;14.440;2024-01-10T09:48:20;43.01;38.95;59.60;;
37223;Laerm;28026;48.562;14.440;2024-01-10T09:50:52;41.55;37.88;50.75;;
37223;Laerm;28026;48.562;14.440;2024-01-10T09:53:26;41.11;36.91;48.78;;
37223;Laerm;28026;48.562;14.440;2024-01-10T09:56:04;43.03;36.69;49.50;;
37223;Laerm;28026;48.562;14.440;2024-01-10T09:58:35;43.05;38.37;59.16;;
37223;Laerm;28026;48.562;14.440;2024-01-10T10:01:10;44.16;39.08;55.98;;
37223;Laerm;28026;48.562;14.440;2024-01-10T10:03:46;41.60;38.05;45.66;;
37223;Laerm;28026;48.562;14.440;2024-01-10T10:06:18;43.03;39.34;46.93;;
37223;Laerm;28026;48.562;14.440;2024-01-10T10:08:49;43.25;39.08;50.61;;
37223;Laerm;28026;48.562;14.440;2024-01-10T10:11:20;42.18;37.88;57.24;;
37223;Laerm;28026;48.562;14.440;2024-01-10T10:13:51;44.83;37.52;58.93;;
37223;Laerm;28026;48.562;14.440;2024-01-10T10:16:25;42.42;37.32;49.50;;
37223;Laerm;28026;48.562;14.440;2024-01-10T10:18:56;42.67;37.70;51.48;;
37223;Laerm;28026;48.562;14.440;2024-01-10T10:21:29;44.19;40.80;52.13;;
37223;Laerm;28026;48.562;14.440;2024-01-10T10:24:02;44.74;39.34;55.99;;
37223;Laerm;28026;48.562;14.440;2024-01-10T10:26:34;44.77;40.53;61.90;;
37223;Laerm;28026;48.562;14.440;2024-01-10T10:29:05;45.66;40.33;58.02;;
37223;Laerm;28026;48.562;14.440;2024-01-10T10:31:36;43.76;39.58;62.42;;
37223;Laerm;28026;48.562;14.440;2024-01-10T10:34:09;44.21;38.81;55.79;;
37223;Laerm;28026;48.562;14.440;2024-01-10T10:36:42;43.94;40.13;64.08;;
37223;Laerm;28026;48.562;14.440;2024-01-10T10:39:16;43.65;37.70;54.94;;
37223;Laerm;28026;48.562;14.440;2024-01-10T10:41:47;45.21;38.05;61.30;;
37223;Laerm;28026;48.562;14.440;2024-01-10T10:44:24;42.47;37.87;53.53;;
37223;Laerm;28026;48.562;14.440;2024-01-10T10:47:04;45.77;37.70;59.06;;
37223;Laerm;28026;48.562;14.440;2024-01-10T10:49:53;42.84;37.32;56.07;;
37223;Laerm;28026;48.562;14.440;2024-01-10T10:52:26;42.69;37.32;65.09;;
37223;Laerm;28026;48.562;14.440;2024-01-10T10:55:00;44.17;38.05;64.83;;
37223;Laerm;28026;48.562;14.440;2024-01-10T10:57:33;42.14;36.20;56.94;;
37223;Laerm;28026;48.562;14.440;2024-01-10T11:00:07;41.86;36.91;57.28;;
37223;Laerm;28026;48.562;14.440;2024-01-10T11:02:38;41.42;36.91;57.49;;
37223;Laerm;28026;48.562;14.440;2024-01-10T11:05:10;44.77;38.52;57.47;;
37223;Laerm;28026;48.562;14.440;2024-01-10T11:07:44;42.32;37.32;57.81;;
37223;Laerm;28026;48.562;14.440;2024-01-10T11:10:31;42.71;37.70;58.46;;
37223;Laerm;28026;48.562;14.440;2024-01-10T11:13:36;43.81;37.70;58.12;;
37223;Laerm;28026;48.562;14.440;2024-01-10T11:16:42;45.80;37.52;59.10;;
37223;Laerm;28026;48.562;14.440;2024-01-10T11:25:35;43.10;37.12;61.60;;
37223;Laerm;28026;48.562;14.440;2024-01-10T11:28:07;47.19;36.91;63.98;;
37223;Laerm;28026;48.562;14.440;2024-01-10T11:30:53;50.13;38.37;66.46;;
37223;Laerm;28026;48.562;14.440;2024-01-10T11:33:33;42.91;36.91;59.18;;
37223;Laerm;28026;48.562;14.440;2024-01-10T11:36:19;42.60;35.94;59.91;;
37223;Laerm;28026;48.562;14.440;2024-01-10T11:41:28;43.68;36.91;60.18;;
37223;Laerm;28026;48.562;14.440;2024-01-10T11:46:54;43.29;36.10;58.66;;
37223;Laerm;28026;48.562;14.440;2024-01-10T11:49:26;44.58;36.69;58.40;;
37223;Laerm;28026;48.562;14.440;2024-01-10T11:51:59;44.58;37.52;58.93;;
37223;Laerm;28026;48.562;14.440;2024-01-10T11:57:26;44.83;36.91;59.65;;
37223;Laerm;28026;48.562;14.440;2024-01-10T11:59:58;44.23;37.12;61.10;;
37223;Laerm;28026;48.562;14.440;2024-01-10T12:02:36;44.07;35.66;59.89;;
37223;Laerm;28026;48.562;14.440;2024-01-10T12:05:09;45.16;38.81;59.69;;
37223;Laerm;28026;48.562;14.440;2024-01-10T12:07:40;46.53;39.21;60.14;;
37223;Laerm;28026;48.562;14.440;2024-01-10T12:10:11;46.12;38.52;58.77;;
37223;Laerm;28026;48.562;14.440;2024-01-10T12:12:42;44.96;38.05;61.50;;
37223;Laerm;28026;48.562;14.440;2024-01-10T12:15:14;46.24;40.33;62.66;;
37223;Laerm;28026;48.562;14.440;2024-01-10T12:17:45;44.86;36.20;61.63;;
37223;Laerm;28026;48.562;14.440;2024-01-10T12:20:16;45.17;36.45;61.02;;
37223;Laerm;28026;48.562;14.440;2024-01-10T12:22:47;45.69;37.70;61.99;;
37223;Laerm;28026;48.562;14.440;2024-01-10T12:25:18;45.53;38.05;62.57;;
37223;Laerm;28026;48.562;14.440;2024-01-10T12:27:50;46.35;40.13;63.99;;
37223;Laerm;28026;48.562;14.440;2024-01-10T12:30:21;45.29;36.77;62.21;;
37223;Laerm;28026;48.562;14.440;2024-01-10T12:32:52;44.83;37.52;62.93;;
37223;Laerm;28026;48.562;14.440;2024-01-10T12:35:23;44.57;37.88;60.89;;
37223;Laerm;28026;48.562;14.440;2024-01-10T12:37:57;45.49;38.32;61.21;;
37223;Laerm;28026;48.562;14.440;2024-01-10T12:40:28;44.84;37.88;61.64;;
37223;Laerm;28026;48.562;14.440;2024-01-10T12:43:05;44.82;36.45;60.58;;
37223;Laerm;28026;48.562;14.440;2024-01-10T12:45:36;45.17;37.70;61.82;;
37223;Laerm;28026;48.562;14.440;2024-01-10T12:48:13;44.95;37.88;61.24;;
37223;Laerm;28026;48.562;14.440;2024-01-10T12:50:47;45.60;38.05;60.86;;
37223;Laerm;28026;48.562;14.440;2024-01-10T12:53:18;45.29;38.95;59.41;;
37223;Laerm;28026;48.562;14.440;2024-01-10T12:55:49;45.50;37.32;59.74;;
37223;Laerm;28026;48.562;14.440;2024-01-10T12:58:20;45.19;37.32;58.88;;
37223;Laerm;28026;48.562;14.440;2024-01-10T13:00:51;45.19;37.12;59.27;;
37223;Laerm;28026;48.562;14.440;2024-01-10T13:03:23;45.44;38.52;59.87;;
37223;Laerm;28026;48.562;14.440;2024-01-10T13:05:55;45.09;37.70;58.67;;
37223;Laerm;28026;48.562;14.440;2024-01-10T13:08:26;45.54;38.21;59.36;;
37223;Laerm;28026;48.562;14.440;2024-01-10T13:10:56;44.94;37.70;59.52;;
37223;Laerm;28026;48.562;14.440;2024-01-10T13:13:27;45.94;37.52;59.39;;
37223;Laerm;28026;48.562;14.440;2024-01-10T13:15:58;44.88;37.70;59.23;;
37223;Laerm;28026;48.562;14.440;2024-01-10T13:18:29;45.49;38.95;61.05;;
37223;Laerm;28026;48.562;14.440;2024-01-10T13:21:00;46.36;38.52;60.71;;
37223;Laerm;28026;48.562;14.440;2024-01-10T13:23:31;45.00;37.52;59.16;;
37223;Laerm;28026;48.562;14.440;2024-01-10T13:26:02;46.23;38.21;61.05;;
37223;Laerm;28026;48.562;14.440;2024-01-10T13:28:33;44.59;37.12;61.00;;
37223;Laerm;28026;48.562;14.440;2024-01-10T13:31:04;45.84;37.32;60.26;;
37223;Laerm;28026;48.562;14.440;2024-01-10T13:33:36;45.88;36.91;60.05;;
37223;Laerm;28026;48.562;14.440;2024-01-10T13:36:08;46.20;38.21;61.03;;
37223;Laerm;28026;48.562;14.440;2024-01-10T13:38:38;46.06;38.05;60.32;;
37223;Laerm;28026;48.562;14.440;2024-01-10T13:41:09;45.01;37.32;61.42;;
37223;Laerm;28026;48.562;14.440;2024-01-10T13:43:40;44.94;37.32;59.77;;
37223;Laerm;28026;48.562;14.440;2024-01-10T13:46:11;45.19;37.52;62.35;;
37223;Laerm;28026;48.562;14.440;2024-01-10T13:48:42;45.51;38.05;59.77;;
37223;Laerm;28026;48.562;14.440;2024-01-10T13:51:13;45.28;37.32;62.06;;
37223;Laerm;28026;48.562;14.440;2024-01-10T13:53:44;44.79;36.91;60.61;;
37223;Laerm;28026;48.562;14.440;2024-01-10T13:56:14;44.80;37.32;60.51;;
37223;Laerm;28026;48.562;14.440;2024-01-10T13:58:45;45.62;38.18;63.55;;
37223;Laerm;28026;48.562;14.440;2024-01-10T14:01:16;44.58;36.91;63.00;;
37223;Laerm;28026;48.562;14.440;2024-01-10T14:03:47;44.68;37.32;59.90;;
37223;Laerm;28026;48.562;14.440;2024-01-10T14:06:18;45.48;37.88;62.23;;
37223;Laerm;28026;48.562;14.440;2024-01-10T14:08:49;45.60;37.70;63.55;;
37223;Laerm;28026;48.562;14.440;2024-01-10T14:11:20;44.74;38.05;62.48;;